createdAt,value
2019-04-25T00:00:16.445Z,0.70
2019-04-25T00:01:16.393Z,0.70
2019-04-25T00:02:16.449Z,0.60
2019-04-25T00:03:16.380Z,1.20
2019-04-25T00:04:16.466Z,1.00
2019-04-25T00:05:16.392Z,1.20
2019-04-25T00:06:16.397Z,1.50
2019-04-25T00:07:16.372Z,1.00
2019-04-25T00:08:16.409Z,1.50
2019-04-25T00:09:16.465Z,1.10
2019-04-25T00:10:16.411Z,1.00
2019-04-25T00:11:16.438Z,0.70
2019-04-25T00:12:16.503Z,1.00
2019-04-25T00:13:16.396Z,0.80
2019-04-25T00:14:16.402Z,1.10
2019-04-25T00:15:16.471Z,0.40
2019-04-25T00:16:16.491Z,0.50
2019-04-25T00:17:16.406Z,1.40
2019-04-25T00:18:16.413Z,1.00
2019-04-25T00:19:16.472Z,0.70
2019-04-25T00:20:16.408Z,1.60
2019-04-25T00:21:16.402Z,0.80
2019-04-25T00:22:16.475Z,0.40
2019-04-25T00:23:16.483Z,0.40
2019-04-25T00:24:16.465Z,0.20
2019-04-25T00:25:17.920Z,0.80
2019-04-25T00:26:16.406Z,0.50
2019-04-25T00:27:16.466Z,0.70
2019-04-25T00:28:16.399Z,1.00
2019-04-25T00:29:16.468Z,0.60
2019-04-25T00:30:16.410Z,0.90
2019-04-25T00:31:16.408Z,1.70
2019-04-25T00:32:16.468Z,1.30
2019-04-25T00:33:16.475Z,1.50
2019-04-25T00:34:16.415Z,0.70
2019-04-25T00:35:16.414Z,0.40
2019-04-25T00:36:16.418Z,0.00
2019-04-25T00:37:16.499Z,0.20
2019-04-25T00:38:16.430Z,0.20
2019-04-25T00:39:16.424Z,0.10
2019-04-25T00:40:16.512Z,0.10
2019-04-25T00:41:16.503Z,0.50
2019-04-25T00:42:16.423Z,0.40
2019-04-25T00:43:16.500Z,1.00
2019-04-25T00:44:16.367Z,0.40
2019-04-25T00:45:16.504Z,0.40
2019-04-25T00:46:16.479Z,0.00
2019-04-25T00:47:16.419Z,0.60
2019-04-25T00:48:16.480Z,0.10
2019-04-25T00:49:16.501Z,0.00
2019-04-25T00:50:16.456Z,0.00
2019-04-25T00:51:16.420Z,0.00
2019-04-25T00:52:16.483Z,0.00
2019-04-25T00:53:16.424Z,0.00
2019-04-25T00:54:16.431Z,0.00
2019-04-25T00:55:26.167Z,0.00
2019-04-25T00:56:16.479Z,0.00
2019-04-25T00:57:16.487Z,0.00
2019-04-25T00:58:16.479Z,0.00
2019-04-25T00:59:16.432Z,0.00
2019-04-25T01:00:16.420Z,0.00
2019-04-25T01:01:16.428Z,0.00
2019-04-25T01:02:16.394Z,0.00
2019-04-25T01:03:16.489Z,0.00
2019-04-25T01:04:16.496Z,0.00
2019-04-25T01:05:16.391Z,0.00
2019-04-25T01:06:16.511Z,0.00
2019-04-25T01:07:16.436Z,0.20
2019-04-25T01:08:16.499Z,0.30
2019-04-25T01:09:16.437Z,0.20
2019-04-25T01:10:16.516Z,1.00
2019-04-25T01:11:16.444Z,0.80
2019-04-25T01:12:16.452Z,1.10
2019-04-25T01:13:16.442Z,1.10
2019-04-25T01:14:16.483Z,1.20
2019-04-25T01:15:16.426Z,2.10
2019-04-25T01:16:16.440Z,2.00
2019-04-25T01:17:16.435Z,2.00
2019-04-25T01:18:16.513Z,1.30
2019-04-25T01:19:16.438Z,4.20
2019-04-25T01:20:16.514Z,1.70
2019-04-25T01:21:16.508Z,1.20
2019-04-25T01:22:16.439Z,2.60
2019-04-25T01:23:16.439Z,1.80
2019-04-25T01:24:16.505Z,2.40
2019-04-25T01:25:16.458Z,2.40
2019-04-25T01:26:16.454Z,1.50
2019-04-25T01:27:16.543Z,1.50
2019-04-25T01:28:16.450Z,2.40
2019-04-25T01:29:16.535Z,1.20
2019-04-25T01:30:16.459Z,2.50
2019-04-25T01:31:16.513Z,1.80
2019-04-25T01:32:16.482Z,1.90
2019-04-25T01:33:16.519Z,1.30
2019-04-25T01:34:16.459Z,1.90
2019-04-25T01:35:16.405Z,3.10
2019-04-25T01:36:16.508Z,1.70
2019-04-25T01:37:16.524Z,4.20
2019-04-25T01:38:16.430Z,2.10
2019-04-25T01:39:16.477Z,2.40
2019-04-25T01:40:16.425Z,1.50
2019-04-25T01:41:16.519Z,0.80
2019-04-25T01:42:16.449Z,0.80
2019-04-25T01:43:16.408Z,0.50
2019-04-25T01:44:16.424Z,0.80
2019-04-25T01:45:16.552Z,0.50
2019-04-25T01:46:16.538Z,0.70
2019-04-25T01:47:16.498Z,0.90
2019-04-25T01:48:16.542Z,0.20
2019-04-25T01:49:16.466Z,0.40
2019-04-25T01:50:16.542Z,0.50
2019-04-25T01:51:16.465Z,0.50
2019-04-25T01:52:16.470Z,0.60
2019-04-25T01:53:16.485Z,0.70
2019-04-25T01:54:16.469Z,0.50
2019-04-25T01:55:16.544Z,0.50
2019-04-25T01:56:16.480Z,0.50
2019-04-25T01:57:16.543Z,0.60
2019-04-25T01:58:16.545Z,0.80
2019-04-25T01:59:16.474Z,0.30
2019-04-25T02:00:16.486Z,0.60
2019-04-25T02:01:16.537Z,0.60
2019-04-25T02:02:16.559Z,0.40
2019-04-25T02:03:16.546Z,0.40
2019-04-25T02:04:16.494Z,0.30
2019-04-25T02:05:16.557Z,0.40
2019-04-25T02:06:16.588Z,0.10
2019-04-25T02:07:16.517Z,0.30
2019-04-25T02:08:16.562Z,0.10
2019-04-25T02:09:16.500Z,0.20
2019-04-25T02:10:16.437Z,0.30
2019-04-25T02:11:16.562Z,0.60
2019-04-25T02:12:16.564Z,0.70
2019-04-25T02:13:16.570Z,0.40
2019-04-25T02:14:16.570Z,0.40
2019-04-25T02:15:16.509Z,0.50
2019-04-25T02:16:16.504Z,0.10
2019-04-25T02:17:16.551Z,0.20
2019-04-25T02:18:16.504Z,0.30
2019-04-25T02:19:16.493Z,0.40
2019-04-25T02:20:16.488Z,0.60
2019-04-25T02:21:16.489Z,0.30
2019-04-25T02:22:16.568Z,0.50
2019-04-25T02:23:16.494Z,0.70
2019-04-25T02:24:16.524Z,0.90
2019-04-25T02:25:16.480Z,0.60
2019-04-25T02:26:18.579Z,1.00
2019-04-25T02:27:16.476Z,0.50
2019-04-25T02:28:16.609Z,0.10
2019-04-25T02:29:16.559Z,0.00
2019-04-25T02:30:16.528Z,0.30
2019-04-25T02:31:18.331Z,0.30
2019-04-25T02:32:16.458Z,0.60
2019-04-25T02:33:16.499Z,0.90
2019-04-25T02:34:18.144Z,1.10
2019-04-25T02:35:16.530Z,1.00
2019-04-25T02:36:16.463Z,0.80
2019-04-25T02:37:16.465Z,0.70
2019-04-25T02:38:16.983Z,1.30
2019-04-25T02:39:16.525Z,1.20
2019-04-25T02:40:16.495Z,1.00
2019-04-25T02:41:16.558Z,0.80
2019-04-25T02:42:17.008Z,0.80
2019-04-25T02:43:16.518Z,0.70
2019-04-25T02:44:16.515Z,1.10
2019-04-25T02:45:16.815Z,1.00
2019-04-25T02:46:16.521Z,0.80
2019-04-25T02:47:16.594Z,0.50
2019-04-25T02:48:16.515Z,0.50
2019-04-25T02:49:29.781Z,0.50
2019-04-25T02:50:16.591Z,0.40
2019-04-25T02:51:16.601Z,0.40
2019-04-25T02:52:18.133Z,0.40
2019-04-25T02:53:16.526Z,0.60
2019-04-25T02:54:16.584Z,1.00
2019-04-25T02:55:30.999Z,0.80
2019-04-25T02:56:30.464Z,0.50
2019-04-25T02:57:16.596Z,0.90
2019-04-25T02:58:16.516Z,0.40
2019-04-25T02:59:16.606Z,1.00
2019-04-25T03:00:16.593Z,0.60
2019-04-25T03:01:22.267Z,1.00
2019-04-25T03:02:16.519Z,1.00
2019-04-25T03:03:16.601Z,0.60
2019-04-25T03:04:16.616Z,0.60
2019-04-25T03:05:16.527Z,0.50
2019-04-25T03:06:16.514Z,0.30
2019-04-25T03:07:17.554Z,0.60
2019-04-25T03:08:16.590Z,0.70
2019-04-25T03:09:16.519Z,0.30
2019-04-25T03:10:16.592Z,0.00
2019-04-25T03:11:16.514Z,0.00
2019-04-25T03:12:29.076Z,0.40
2019-04-25T03:13:16.529Z,0.10
2019-04-25T03:14:16.540Z,0.20
2019-04-25T03:15:16.660Z,0.40
2019-04-25T03:16:16.606Z,0.10
2019-04-25T03:17:16.534Z,0.20
2019-04-25T03:18:16.606Z,0.30
2019-04-25T03:19:16.607Z,0.30
2019-04-25T03:20:16.619Z,0.00
2019-04-25T03:21:17.621Z,0.00
2019-04-25T03:22:16.619Z,0.10
2019-04-25T03:23:16.626Z,0.20
2019-04-25T03:24:17.055Z,0.10
2019-04-25T03:25:17.666Z,0.20
2019-04-25T03:26:16.614Z,0.00
2019-04-25T03:27:16.536Z,0.00
2019-04-25T03:28:16.605Z,0.00
2019-04-25T03:29:16.617Z,0.00
2019-04-25T03:30:17.790Z,0.00
2019-04-25T03:31:22.578Z,0.00
2019-04-25T03:32:19.897Z,0.00
2019-04-25T03:33:19.563Z,0.00
2019-04-25T03:34:20.393Z,0.00
2019-04-25T03:35:16.556Z,0.00
2019-04-25T03:36:17.145Z,0.00
2019-04-25T03:37:16.545Z,0.00
2019-04-25T03:38:16.628Z,0.00
2019-04-25T03:39:16.677Z,0.00
2019-04-25T03:40:16.631Z,0.10
2019-04-25T03:41:16.621Z,0.00
2019-04-25T03:42:16.550Z,0.00
2019-04-25T03:43:16.614Z,0.00
2019-04-25T03:44:16.558Z,0.00
2019-04-25T03:45:16.611Z,0.10
2019-04-25T03:46:16.617Z,0.10
2019-04-25T03:47:16.539Z,0.10
2019-04-25T03:48:16.616Z,0.30
2019-04-25T03:49:16.616Z,0.10
2019-04-25T03:50:16.552Z,0.30
2019-04-25T03:51:16.616Z,0.00
2019-04-25T03:52:16.614Z,0.00
2019-04-25T03:53:16.548Z,0.10
2019-04-25T03:54:16.615Z,0.00
2019-04-25T03:55:16.628Z,0.00
2019-04-25T03:56:16.637Z,0.00
2019-04-25T03:57:16.636Z,0.00
2019-04-25T03:58:16.561Z,0.00
2019-04-25T03:59:16.635Z,0.00
2019-04-25T04:00:16.560Z,0.00
2019-04-25T04:01:16.632Z,0.00
2019-04-25T04:02:16.562Z,0.00
2019-04-25T04:03:16.698Z,0.00
2019-04-25T04:04:16.565Z,0.00
2019-04-25T04:05:16.572Z,0.00
2019-04-25T04:06:16.645Z,0.00
2019-04-25T04:07:16.570Z,0.00
2019-04-25T04:08:16.565Z,0.00
2019-04-25T04:09:16.606Z,0.00
2019-04-25T04:10:16.641Z,0.00
2019-04-25T04:11:16.673Z,0.00
2019-04-25T04:12:16.581Z,0.00
2019-04-25T04:13:16.589Z,0.30
2019-04-25T04:14:16.573Z,0.00
2019-04-25T04:15:16.588Z,0.10
2019-04-25T04:16:16.647Z,0.00
2019-04-25T04:17:16.663Z,0.20
2019-04-25T04:18:17.370Z,0.00
2019-04-25T04:19:16.654Z,0.00
2019-04-25T04:20:16.578Z,0.00
2019-04-25T04:21:17.393Z,0.00
2019-04-25T04:22:16.576Z,0.00
2019-04-25T04:23:16.597Z,0.00
2019-04-25T04:24:16.577Z,0.00
2019-04-25T04:25:16.588Z,0.00
2019-04-25T04:26:16.578Z,0.00
2019-04-25T04:27:16.830Z,0.00
2019-04-25T04:28:16.583Z,0.00
2019-04-25T04:29:16.674Z,0.00
2019-04-25T04:30:16.649Z,0.00
2019-04-25T04:31:16.666Z,0.00
2019-04-25T04:32:17.388Z,0.00
2019-04-25T04:33:29.599Z,0.00
2019-04-25T04:34:16.981Z,0.00
2019-04-25T04:35:17.432Z,0.00
2019-04-25T04:36:17.753Z,0.00
2019-04-25T04:37:17.507Z,0.00
2019-04-25T04:38:16.656Z,0.00
2019-04-25T04:39:17.739Z,0.00
2019-04-25T04:40:17.634Z,0.00
2019-04-25T04:41:16.595Z,0.00
2019-04-25T04:42:16.659Z,0.00
2019-04-25T04:43:16.667Z,0.00
2019-04-25T04:44:16.599Z,0.00
2019-04-25T04:45:16.676Z,0.30
2019-04-25T04:46:18.441Z,0.20
2019-04-25T04:47:16.713Z,0.00
2019-04-25T04:48:16.764Z,0.20
2019-04-25T04:49:16.666Z,0.30
2019-04-25T04:50:16.732Z,0.40
2019-04-25T04:51:16.944Z,0.00
2019-04-25T04:52:16.987Z,0.30
2019-04-25T04:53:17.213Z,0.20
2019-04-25T04:54:17.127Z,0.30
2019-04-25T04:55:17.595Z,0.10
2019-04-25T04:56:17.561Z,0.10
2019-04-25T04:57:27.852Z,0.00
2019-04-25T04:58:17.650Z,0.00
2019-04-25T04:59:16.649Z,0.00
2019-04-25T05:00:16.922Z,0.00
2019-04-25T05:01:16.726Z,0.00
2019-04-25T05:02:17.382Z,0.00
2019-04-25T05:03:16.948Z,0.20
2019-04-25T05:04:17.164Z,0.10
2019-04-25T05:05:17.159Z,0.30
2019-04-25T05:06:17.367Z,0.10
2019-04-25T05:07:17.460Z,0.40
2019-04-25T05:08:17.295Z,0.80
2019-04-25T05:09:16.613Z,0.00
2019-04-25T05:10:18.658Z,0.00
2019-04-25T05:11:17.046Z,0.00
2019-04-25T05:12:17.445Z,0.50
2019-04-25T05:13:17.074Z,0.10
2019-04-25T05:14:17.405Z,0.00
2019-04-25T05:15:17.907Z,0.00
2019-04-25T05:16:17.677Z,0.50
2019-04-25T05:17:16.552Z,1.00
2019-04-25T05:18:31.599Z,0.30
2019-04-25T05:19:16.837Z,0.30
2019-04-25T05:20:17.829Z,0.50
2019-04-25T05:21:17.129Z,0.50
2019-04-25T05:22:16.865Z,0.90
2019-04-25T05:23:17.129Z,0.20
2019-04-25T05:24:17.348Z,0.10
2019-04-25T05:25:17.737Z,0.60
2019-04-25T05:26:17.173Z,0.50
2019-04-25T05:27:30.600Z,0.20
2019-04-25T05:28:18.159Z,0.40
2019-04-25T05:29:21.021Z,0.70
2019-04-25T05:30:17.707Z,0.10
2019-04-25T05:31:17.286Z,0.30
2019-04-25T05:32:17.286Z,0.10
2019-04-25T05:33:19.724Z,0.20
2019-04-25T05:34:17.243Z,0.90
2019-04-25T05:35:16.590Z,0.30
2019-04-25T05:36:17.554Z,0.70
2019-04-25T05:37:17.537Z,0.50
2019-04-25T05:38:17.605Z,1.00
2019-04-25T05:39:18.078Z,1.20
2019-04-25T05:40:17.170Z,1.50
2019-04-25T05:41:16.898Z,1.10
2019-04-25T05:42:17.221Z,0.70
2019-04-25T05:43:16.620Z,0.80
2019-04-25T05:44:16.917Z,0.80
2019-04-25T05:45:18.548Z,1.20
2019-04-25T05:46:16.907Z,1.60
2019-04-25T05:47:17.452Z,0.50
2019-04-25T05:48:17.197Z,1.40
2019-04-25T05:49:17.165Z,0.50
2019-04-25T05:50:16.622Z,0.70
2019-04-25T05:51:17.412Z,0.80
2019-04-25T05:52:17.514Z,0.80
2019-04-25T05:53:17.687Z,0.60
2019-04-25T05:54:16.702Z,0.00
2019-04-25T05:55:18.991Z,0.40
2019-04-25T05:56:16.617Z,0.40
2019-04-25T05:57:16.678Z,0.20
2019-04-25T05:58:16.930Z,0.00
2019-04-25T05:59:17.927Z,0.40
2019-04-25T06:00:17.949Z,0.00
2019-04-25T06:01:17.203Z,0.00
2019-04-25T06:02:17.795Z,0.00
2019-04-25T06:03:17.267Z,0.00
2019-04-25T06:04:17.849Z,0.40
2019-04-25T06:05:17.435Z,0.10
2019-04-25T06:06:17.551Z,0.20
2019-04-25T06:07:17.902Z,0.10
2019-04-25T06:08:17.468Z,0.00
2019-04-25T06:09:17.597Z,0.30
2019-04-25T06:10:17.404Z,0.10
2019-04-25T06:11:17.911Z,0.70
2019-04-25T06:12:18.110Z,0.40
2019-04-25T06:13:17.356Z,0.40
2019-04-25T06:14:18.283Z,0.30
2019-04-25T06:15:18.328Z,1.00
2019-04-25T06:16:16.707Z,0.20
2019-04-25T06:17:16.585Z,0.10
2019-04-25T06:18:16.650Z,0.00
2019-04-25T06:19:19.605Z,0.10
2019-04-25T06:20:16.611Z,0.50
2019-04-25T06:21:16.646Z,0.10
2019-04-25T06:22:16.616Z,0.00
2019-04-25T06:23:16.682Z,0.00
2019-04-25T06:24:16.702Z,0.00
2019-04-25T06:25:16.682Z,1.80
2019-04-25T06:26:24.834Z,1.30
2019-04-25T06:27:16.660Z,1.20
2019-04-25T06:28:16.612Z,1.50
2019-04-25T06:29:16.755Z,1.80
2019-04-25T06:30:16.677Z,1.60
2019-04-25T06:31:16.603Z,0.60
2019-04-25T06:32:16.731Z,0.70
2019-04-25T06:33:16.692Z,0.60
2019-04-25T06:34:16.731Z,0.30
2019-04-25T06:35:16.738Z,0.00
2019-04-25T06:36:16.674Z,0.46
2019-04-25T06:37:16.694Z,0.10
2019-04-25T06:38:16.713Z,0.40
2019-04-25T06:39:16.675Z,0.30
2019-04-25T06:40:16.680Z,0.20
2019-04-25T06:41:16.746Z,0.20
2019-04-25T06:42:16.683Z,0.00
2019-04-25T06:43:16.691Z,0.50
2019-04-25T06:44:16.683Z,0.60
2019-04-25T06:45:16.747Z,1.10
2019-04-25T06:46:16.683Z,0.50
2019-04-25T06:47:16.826Z,0.20
2019-04-25T06:48:16.684Z,0.60
2019-04-25T06:49:16.689Z,0.80
2019-04-25T06:50:16.685Z,0.20
2019-04-25T06:51:16.689Z,0.20
2019-04-25T06:52:16.751Z,0.30
2019-04-25T06:53:16.686Z,0.00
2019-04-25T06:54:16.754Z,0.10
2019-04-25T06:55:16.753Z,0.00
2019-04-25T06:56:16.748Z,1.00
2019-04-25T06:57:16.690Z,0.90
2019-04-25T06:58:16.753Z,0.60
2019-04-25T06:59:16.749Z,0.00
2019-04-25T07:00:16.691Z,0.00
2019-04-25T07:01:16.679Z,1.10
2019-04-25T07:02:16.752Z,0.00
2019-04-25T07:03:16.757Z,0.00
2019-04-25T07:04:16.666Z,1.00
2019-04-25T07:05:26.520Z,0.60
2019-04-25T07:06:16.775Z,0.50
2019-04-25T07:07:16.694Z,1.70
2019-04-25T07:08:16.766Z,0.00
2019-04-25T07:09:16.779Z,0.40
2019-04-25T07:10:16.792Z,0.00
2019-04-25T07:11:16.712Z,0.30
2019-04-25T07:12:16.705Z,0.00
2019-04-25T07:13:16.788Z,0.00
2019-04-25T07:14:16.770Z,0.00
2019-04-25T07:15:16.776Z,0.00
2019-04-25T07:16:16.771Z,0.00
2019-04-25T07:17:16.775Z,0.00
2019-04-25T07:18:16.773Z,0.00
2019-04-25T07:19:17.610Z,0.00
2019-04-25T07:20:16.710Z,0.00
2019-04-25T07:21:16.711Z,0.00
2019-04-25T07:22:16.713Z,0.00
2019-04-25T07:23:16.776Z,0.00
2019-04-25T07:24:17.580Z,0.00
2019-04-25T07:25:16.776Z,0.00
2019-04-25T07:26:16.781Z,0.14
2019-04-25T07:27:16.714Z,0.00
2019-04-25T07:28:24.193Z,0.00
2019-04-25T07:29:16.715Z,0.11
2019-04-25T07:30:26.944Z,0.00
2019-04-25T07:31:16.786Z,0.12
2019-04-25T07:32:16.786Z,0.00
2019-04-25T07:33:16.715Z,0.00
2019-04-25T07:34:16.788Z,0.00
2019-04-25T07:35:16.792Z,0.00
2019-04-25T07:36:16.720Z,0.10
2019-04-25T07:37:16.789Z,0.00
2019-04-25T07:38:16.793Z,0.40
2019-04-25T07:39:16.722Z,0.00
2019-04-25T07:40:16.790Z,0.00
2019-04-25T07:41:16.792Z,0.00
2019-04-25T07:42:16.799Z,0.00
2019-04-25T07:43:16.784Z,0.20
2019-04-25T07:44:16.826Z,0.00
2019-04-25T07:45:16.796Z,0.00
2019-04-25T07:46:16.797Z,1.20
2019-04-25T07:47:16.731Z,0.40
2019-04-25T07:48:16.797Z,0.50
2019-04-25T07:49:16.794Z,0.00
2019-04-25T07:50:16.796Z,0.90
2019-04-25T07:51:16.798Z,0.40
2019-04-25T07:52:16.798Z,0.00
2019-04-25T07:53:16.802Z,0.70
2019-04-25T07:54:16.798Z,0.00
2019-04-25T07:55:16.857Z,0.00
2019-04-25T07:56:16.729Z,0.38
2019-04-25T07:57:16.783Z,0.00
2019-04-25T07:58:16.726Z,0.00
2019-04-25T07:59:16.797Z,0.60
2019-04-25T08:00:16.719Z,1.20
2019-04-25T08:01:16.793Z,0.00
2019-04-25T08:02:16.738Z,0.00
2019-04-25T08:03:16.744Z,1.00
2019-04-25T08:04:16.721Z,1.00
2019-04-25T08:05:16.731Z,0.00
2019-04-25T08:06:16.808Z,1.10
2019-04-25T08:07:16.845Z,1.10
2019-04-25T08:08:16.810Z,0.70
2019-04-25T08:09:16.742Z,1.20
2019-04-25T08:10:16.813Z,0.00
2019-04-25T08:11:16.740Z,1.30
2019-04-25T08:12:16.755Z,0.00
2019-04-25T08:13:16.757Z,1.10
2019-04-25T08:14:16.745Z,0.10
2019-04-25T08:15:16.826Z,0.30
2019-04-25T08:16:16.734Z,0.73
2019-04-25T08:17:16.730Z,1.20
2019-04-25T08:18:16.807Z,1.00
2019-04-25T08:19:16.816Z,1.30
2019-04-25T08:20:16.813Z,1.90
2019-04-25T08:21:16.720Z,1.50
2019-04-25T08:22:16.730Z,1.40
2019-04-25T08:23:16.809Z,2.10
2019-04-25T08:24:16.842Z,3.60
2019-04-25T08:25:16.724Z,3.50
2019-04-25T08:26:16.757Z,1.60
2019-04-25T08:27:16.826Z,1.80
2019-04-25T08:28:16.828Z,0.80
2019-04-25T08:29:16.825Z,1.40
2019-04-25T08:30:16.760Z,2.30
2019-04-25T08:31:16.833Z,1.50
2019-04-25T08:32:16.761Z,2.00
2019-04-25T08:33:16.830Z,1.70
2019-04-25T08:34:16.759Z,2.90
2019-04-25T08:35:16.833Z,2.00
2019-04-25T08:36:16.747Z,3.20
2019-04-25T08:37:18.983Z,3.40
2019-04-25T08:38:16.827Z,3.70
2019-04-25T08:39:16.823Z,2.10
2019-04-25T08:40:16.826Z,1.50
2019-04-25T08:41:16.763Z,4.00
2019-04-25T08:42:16.769Z,5.90
2019-04-25T08:43:16.835Z,3.00
2019-04-25T08:44:16.755Z,2.90
2019-04-25T08:45:16.837Z,2.90
2019-04-25T08:46:16.711Z,2.70
2019-04-25T08:47:16.823Z,3.10
2019-04-25T08:48:16.714Z,2.90
2019-04-25T08:49:16.801Z,2.70
2019-04-25T08:50:26.954Z,2.40
2019-04-25T08:51:16.829Z,1.80
2019-04-25T08:52:16.836Z,2.90
2019-04-25T08:53:16.825Z,2.30
2019-04-25T08:54:16.744Z,2.20
2019-04-25T08:55:16.715Z,2.70
2019-04-25T08:56:16.847Z,2.60
2019-04-25T08:57:16.846Z,2.40
2019-04-25T08:58:16.788Z,2.90
2019-04-25T08:59:16.848Z,2.40
2019-04-25T09:00:16.851Z,2.80
2019-04-25T09:01:16.854Z,2.70
2019-04-25T09:02:16.780Z,2.70
2019-04-25T09:03:16.853Z,2.70
2019-04-25T09:04:16.784Z,1.40
2019-04-25T09:05:16.856Z,0.70
2019-04-25T09:06:16.825Z,1.10
2019-04-25T09:07:16.757Z,1.90
2019-04-25T09:08:16.842Z,1.20
2019-04-25T09:09:16.832Z,0.80
2019-04-25T09:10:16.724Z,2.00
2019-04-25T09:11:16.845Z,1.90
2019-04-25T09:12:16.787Z,0.90
2019-04-25T09:13:16.740Z,2.00
2019-04-25T09:14:16.724Z,0.60
2019-04-25T09:15:16.843Z,1.40
2019-04-25T09:16:16.789Z,1.20
2019-04-25T09:17:16.855Z,1.21
2019-04-25T09:18:16.927Z,3.10
2019-04-25T09:19:16.869Z,1.30
2019-04-25T09:20:16.880Z,2.20
2019-04-25T09:21:16.866Z,0.70
2019-04-25T09:22:16.868Z,0.80
2019-04-25T09:23:16.793Z,1.00
2019-04-25T09:24:16.796Z,1.70
2019-04-25T09:25:16.800Z,1.60
2019-04-25T09:26:16.880Z,1.00
2019-04-25T09:27:16.799Z,0.20
2019-04-25T09:28:16.870Z,1.20
2019-04-25T09:29:19.785Z,1.70
2019-04-25T09:30:16.801Z,0.00
2019-04-25T09:31:16.870Z,0.70
2019-04-25T09:32:16.939Z,2.70
2019-04-25T09:33:16.870Z,3.20
2019-04-25T09:34:16.871Z,1.50
2019-04-25T09:35:16.875Z,1.10
2019-04-25T09:36:16.874Z,2.90
2019-04-25T09:37:16.764Z,1.10
2019-04-25T09:38:16.877Z,0.40
2019-04-25T09:39:16.805Z,1.90
2019-04-25T09:40:16.879Z,1.50
2019-04-25T09:41:16.812Z,1.30
2019-04-25T09:42:16.846Z,0.89
2019-04-25T09:43:16.817Z,1.10
2019-04-25T09:44:16.882Z,0.81
2019-04-25T09:45:16.908Z,3.10
2019-04-25T09:46:16.825Z,1.30
2019-04-25T09:47:16.886Z,1.20
2019-04-25T09:48:16.827Z,1.50
2019-04-25T09:49:16.888Z,1.90
2019-04-25T09:50:16.898Z,0.40
2019-04-25T09:51:16.815Z,0.90
2019-04-25T09:52:16.814Z,0.31
2019-04-25T09:53:23.633Z,0.81
2019-04-25T09:54:16.897Z,0.30
2019-04-25T09:55:16.831Z,0.60
2019-04-25T09:56:16.896Z,0.10
2019-04-25T09:57:16.887Z,1.36
2019-04-25T09:58:16.832Z,0.22
2019-04-25T09:59:26.810Z,0.83
2019-04-25T10:00:16.897Z,0.77
2019-04-25T10:01:16.843Z,0.70
2019-04-25T10:02:16.899Z,0.20
2019-04-25T10:03:16.834Z,0.30
2019-04-25T10:04:16.894Z,1.90
2019-04-25T10:05:16.892Z,1.70
2019-04-25T10:06:16.831Z,2.70
2019-04-25T10:07:16.833Z,1.10
2019-04-25T10:08:16.829Z,0.30
2019-04-25T10:09:16.827Z,0.80
2019-04-25T10:10:16.957Z,1.00
2019-04-25T10:11:16.833Z,1.30
2019-04-25T10:12:16.905Z,1.80
2019-04-25T10:13:16.841Z,1.10
2019-04-25T10:14:16.925Z,1.20
2019-04-25T10:15:16.831Z,2.20
2019-04-25T10:16:16.774Z,1.80
2019-04-25T10:17:16.763Z,1.60
2019-04-25T10:18:16.824Z,0.20
2019-04-25T10:19:16.820Z,1.50
2019-04-25T10:20:16.834Z,0.80
2019-04-25T10:21:16.896Z,1.30
2019-04-25T10:22:16.888Z,1.00
2019-04-25T10:23:16.802Z,0.22
2019-04-25T10:24:16.848Z,0.30
2019-04-25T10:25:16.779Z,1.40
2019-04-25T10:26:16.907Z,2.40
2019-04-25T10:27:16.904Z,0.00
2019-04-25T10:28:16.825Z,0.60
2019-04-25T10:29:16.831Z,0.89
2019-04-25T10:30:21.643Z,0.70
2019-04-25T10:31:16.908Z,1.20
2019-04-25T10:32:16.904Z,1.50
2019-04-25T10:33:16.906Z,0.90
2019-04-25T10:34:16.832Z,0.10
2019-04-25T10:35:16.842Z,1.10
2019-04-25T10:36:16.849Z,0.20
2019-04-25T10:37:16.863Z,2.60
2019-04-25T10:38:16.919Z,0.00
2019-04-25T10:39:16.884Z,2.30
2019-04-25T10:40:16.919Z,1.50
2019-04-25T10:41:16.860Z,1.10
2019-04-25T10:42:16.926Z,1.50
2019-04-25T10:43:16.923Z,0.30
2019-04-25T10:44:16.923Z,0.90
2019-04-25T10:45:23.116Z,0.92
2019-04-25T10:46:16.928Z,0.80
2019-04-25T10:47:16.860Z,0.70
2019-04-25T10:48:16.867Z,2.30
2019-04-25T10:49:16.856Z,0.30
2019-04-25T10:50:16.883Z,0.30
2019-04-25T10:51:16.930Z,0.40
2019-04-25T10:52:16.866Z,1.20
2019-04-25T10:53:16.929Z,1.20
2019-04-25T10:54:16.901Z,2.40
2019-04-25T10:55:16.869Z,2.60
2019-04-25T10:56:16.857Z,0.80
2019-04-25T10:57:16.941Z,3.50
2019-04-25T10:58:16.861Z,2.80
2019-04-25T10:59:16.921Z,0.10
2019-04-25T11:00:16.806Z,1.30
2019-04-25T11:01:16.826Z,0.90
2019-04-25T11:02:16.964Z,0.50
2019-04-25T11:03:16.863Z,0.45
2019-04-25T11:04:16.867Z,1.30
2019-04-25T11:05:16.932Z,1.40
2019-04-25T11:06:16.931Z,3.20
2019-04-25T11:07:16.855Z,1.90
2019-04-25T11:08:17.011Z,1.00
2019-04-25T11:09:16.843Z,0.90
2019-04-25T11:10:16.936Z,0.10
2019-04-25T11:11:16.933Z,0.40
2019-04-25T11:12:16.937Z,0.30
2019-04-25T11:13:16.936Z,0.30
2019-04-25T11:14:16.889Z,1.00
2019-04-25T11:15:16.850Z,0.60
2019-04-25T11:16:16.888Z,1.20
2019-04-25T11:17:16.965Z,1.10
2019-04-25T11:18:16.955Z,1.00
2019-04-25T11:19:16.859Z,0.90
2019-04-25T11:20:16.960Z,1.80
2019-04-25T11:21:16.890Z,1.10
2019-04-25T11:22:16.885Z,0.70
2019-04-25T11:23:16.959Z,0.90
2019-04-25T11:24:16.887Z,1.30
2019-04-25T11:25:16.954Z,0.50
2019-04-25T11:26:16.870Z,0.60
2019-04-25T11:27:16.950Z,0.70
2019-04-25T11:28:16.871Z,0.30
2019-04-25T11:29:16.947Z,0.40
2019-04-25T11:30:16.944Z,0.50
2019-04-25T11:31:16.884Z,0.60
2019-04-25T11:32:19.703Z,1.50
2019-04-25T11:33:16.962Z,1.50
2019-04-25T11:34:16.976Z,1.00
2019-04-25T11:35:16.865Z,1.60
2019-04-25T11:36:16.895Z,2.00
2019-04-25T11:37:16.850Z,1.90
2019-04-25T11:38:16.832Z,1.90
2019-04-25T11:39:16.957Z,1.70
2019-04-25T11:40:16.895Z,3.50
2019-04-25T11:41:16.896Z,2.00
2019-04-25T11:42:16.950Z,1.40
2019-04-25T11:43:16.827Z,1.50
2019-04-25T11:44:16.901Z,1.40
2019-04-25T11:45:16.969Z,1.90
2019-04-25T11:46:16.893Z,1.30
2019-04-25T11:47:16.898Z,0.80
2019-04-25T11:48:16.962Z,1.20
2019-04-25T11:49:16.888Z,0.50
2019-04-25T11:50:16.857Z,0.60
2019-04-25T11:51:16.976Z,1.00
2019-04-25T11:52:26.860Z,0.80
2019-04-25T11:53:16.965Z,0.20
2019-04-25T11:54:16.962Z,1.10
2019-04-25T11:55:16.969Z,1.00
2019-04-25T11:56:16.981Z,1.20
2019-04-25T11:57:17.000Z,1.60
2019-04-25T11:58:16.913Z,0.20
2019-04-25T11:59:16.965Z,0.60
2019-04-25T12:00:22.195Z,0.50
2019-04-25T12:01:16.994Z,0.40
2019-04-25T12:02:16.920Z,1.40
2019-04-25T12:03:16.985Z,0.60
2019-04-25T12:04:16.985Z,0.10
2019-04-25T12:05:16.974Z,0.00
2019-04-25T12:06:16.990Z,0.00
2019-04-25T12:07:16.928Z,0.20
2019-04-25T12:08:16.983Z,2.60
2019-04-25T12:09:16.985Z,1.60
2019-04-25T12:10:16.922Z,4.10
2019-04-25T12:11:16.986Z,1.50
2019-04-25T12:12:16.921Z,1.00
2019-04-25T12:13:16.925Z,2.60
2019-04-25T12:14:16.926Z,1.50
2019-04-25T12:15:17.007Z,2.90
2019-04-25T12:16:16.928Z,1.80
2019-04-25T12:17:17.001Z,0.60
2019-04-25T12:18:17.001Z,0.30
2019-04-25T12:19:16.998Z,0.00
2019-04-25T12:20:17.004Z,1.60
2019-04-25T12:21:16.930Z,2.60
2019-04-25T12:22:16.927Z,0.60
2019-04-25T12:23:16.999Z,0.80
2019-04-25T12:24:16.996Z,0.80
2019-04-25T12:25:16.928Z,2.20
2019-04-25T12:26:16.913Z,0.70
2019-04-25T12:28:16.991Z,0.70
2019-04-25T12:29:16.993Z,0.50
2019-04-25T12:30:16.989Z,0.70
2019-04-25T12:31:16.994Z,0.60
2019-04-25T12:32:16.905Z,0.50
2019-04-25T12:33:21.037Z,0.40
2019-04-25T12:34:16.928Z,0.20
2019-04-25T12:35:17.001Z,0.10
2019-04-25T12:36:17.009Z,1.30
2019-04-25T12:37:16.942Z,1.00
2019-04-25T12:38:16.942Z,2.70
2019-04-25T12:39:16.945Z,0.90
2019-04-25T12:40:17.008Z,1.90
2019-04-25T12:41:16.943Z,1.30
2019-04-25T12:42:16.942Z,0.50
2019-04-25T12:43:17.025Z,0.20
2019-04-25T12:44:17.008Z,0.80
2019-04-25T12:45:16.949Z,0.20
2019-04-25T12:46:17.017Z,0.30
2019-04-25T12:47:16.952Z,0.22
2019-04-25T12:48:17.018Z,0.20
2019-04-25T12:49:17.016Z,0.00
2019-04-25T12:50:18.712Z,0.50
2019-04-25T12:51:17.018Z,0.70
2019-04-25T12:52:16.951Z,0.30
2019-04-25T12:53:17.040Z,0.70
2019-04-25T12:54:17.018Z,0.10
2019-04-25T12:55:16.952Z,0.00
2019-04-25T12:56:16.934Z,0.60
2019-04-25T12:57:16.941Z,0.10
2019-04-25T12:58:17.015Z,1.50
2019-04-25T12:59:17.009Z,0.50
2019-04-25T13:00:16.955Z,1.50
2019-04-25T13:01:16.940Z,0.00
2019-04-25T13:02:16.942Z,0.50
2019-04-25T13:03:17.014Z,1.70
2019-04-25T13:04:17.019Z,0.00
2019-04-25T13:05:17.017Z,0.00
2019-04-25T13:06:17.029Z,0.00
2019-04-25T13:07:17.027Z,0.00
2019-04-25T13:08:16.961Z,0.00
2019-04-25T13:09:16.966Z,0.60
2019-04-25T13:10:16.960Z,0.00
2019-04-25T13:11:16.982Z,1.10
2019-04-25T13:12:17.073Z,1.20
2019-04-25T13:13:17.578Z,0.30
2019-04-25T13:14:17.565Z,0.30
2019-04-25T13:15:17.691Z,0.00
2019-04-25T13:16:16.969Z,0.70
2019-04-25T13:17:17.035Z,0.70
2019-04-25T13:18:17.048Z,0.90
2019-04-25T13:19:23.753Z,1.10